sensor_id;sensor_type;location;lat;lon;timestamp;pressure;altitude;pressure_sealevel;temperature;humidity
45467;BME280;31212;49.734;8.490;2022-08-21T00:02:15;100470.25;;;15.25;71.82
45467;BME280;31212;49.734;8.490;2022-08-21T00:04:42;100486.06;;;15.17;72.92
45467;BME280;31212;49.734;8.490;2022-08-21T00:07:09;100492.31;;;15.07;73.59
45467;BME280;31212;49.734;8.490;2022-08-21T00:09:37;100507.16;;;15.03;74.13
45467;BME280;31212;49.734;8.490;2022-08-21T00:12:05;100501.13;;;14.98;74.56
45467;BME280;31212;49.734;8.490;2022-08-21T00:14:33;100502.88;;;14.99;75.13
45467;BME280;31212;49.734;8.490;2022-08-21T00:16:59;100507.25;;;14.97;75.53
45467;BME280;31212;49.734;8.490;2022-08-21T00:19:26;100509.88;;;14.97;75.84
45467;BME280;31212;49.734;8.490;2022-08-21T00:21:54;100495.06;;;14.96;75.43
45467;BME280;31212;49.734;8.490;2022-08-21T00:24:21;100469.66;;;15.06;74.83
45467;BME280;31212;49.734;8.490;2022-08-21T00:26:48;100460.22;;;14.95;74.79
45467;BME280;31212;49.734;8.490;2022-08-21T00:29:17;100442.09;;;14.82;74.32
45467;BME280;31212;49.734;8.490;2022-08-21T00:31:44;100453.50;;;14.77;74.64
45467;BME280;31212;49.734;8.490;2022-08-21T00:34:12;100470.16;;;14.70;75.40
45467;BME280;31212;49.734;8.490;2022-08-21T00:36:40;100486.69;;;14.69;76.12
45467;BME280;31212;49.734;8.490;2022-08-21T00:39:07;100487.56;;;14.70;76.38
45467;BME280;31212;49.734;8.490;2022-08-21T00:41:36;100484.09;;;14.69;76.54
45467;BME280;31212;49.734;8.490;2022-08-21T00:44:03;100482.34;;;14.68;76.13
45467;BME280;31212;49.734;8.490;2022-08-21T00:46:31;100464.91;;;14.72;75.82
45467;BME280;31212;49.734;8.490;2022-08-21T00:48:57;100471.00;;;14.71;75.69
45467;BME280;31212;49.734;8.490;2022-08-21T00:51:28;100465.72;;;14.77;75.67
45467;BME280;31212;49.734;8.490;2022-08-21T00:54:01;100473.69;;;14.66;75.74
45467;BME280;31212;49.734;8.490;2022-08-21T00:56:28;100483.28;;;14.62;76.49
45467;BME280;31212;49.734;8.490;2022-08-21T00:58:55;100485.00;;;14.67;76.44
45467;BME280;31212;49.734;8.490;2022-08-21T01:01:23;100477.91;;;14.75;76.06
45467;BME280;31212;49.734;8.490;2022-08-21T01:03:51;100477.13;;;14.68;76.05
45467;BME280;31212;49.734;8.490;2022-08-21T01:06:17;100488.53;;;14.61;76.33
45467;BME280;31212;49.734;8.490;2022-08-21T01:08:44;100490.31;;;14.56;77.00
45467;BME280;31212;49.734;8.490;2022-08-21T01:11:12;100505.16;;;14.51;77.68
45467;BME280;31212;49.734;8.490;2022-08-21T01:13:39;100506.88;;;14.55;77.45
45467;BME280;31212;49.734;8.490;2022-08-21T01:16:12;100508.56;;;14.59;77.53
45467;BME280;31212;49.734;8.490;2022-08-21T01:18:39;100506.88;;;14.56;77.52
45467;BME280;31212;49.734;8.490;2022-08-21T01:21:11;100513.88;;;14.53;78.42
45467;BME280;31212;49.734;8.490;2022-08-21T01:23:41;100517.38;;;14.50;78.54
45467;BME280;31212;49.734;8.490;2022-08-21T01:26:09;100518.19;;;14.57;78.82
45467;BME280;31212;49.734;8.490;2022-08-21T01:28:38;100500.88;;;14.46;77.93
45467;BME280;31212;49.734;8.490;2022-08-21T01:31:09;100440.78;;;14.50;76.01
45467;BME280;31212;49.734;8.490;2022-08-21T01:33:37;100436.63;;;14.32;75.50
45467;BME280;31212;49.734;8.490;2022-08-21T01:36:04;100439.44;;;14.15;75.90
45467;BME280;31212;49.734;8.490;2022-08-21T01:38:32;100458.69;;;14.04;76.43
45467;BME280;31212;49.734;8.490;2022-08-21T01:40:59;100474.47;;;13.93;77.06
45467;BME280;31212;49.734;8.490;2022-08-21T01:43:26;100481.41;;;13.91;77.73
45467;BME280;31212;49.734;8.490;2022-08-21T01:45:52;100490.19;;;13.86;78.19
45467;BME280;31212;49.734;8.490;2022-08-21T01:48:19;100498.13;;;13.73;78.74
45467;BME280;31212;49.734;8.490;2022-08-21T01:50:45;100498.19;;;13.67;79.07
45467;BME280;31212;49.734;8.490;2022-08-21T01:53:12;100499.94;;;13.63;79.17
45467;BME280;31212;49.734;8.490;2022-08-21T01:55:42;100502.59;;;13.56;79.51
45467;BME280;31212;49.734;8.490;2022-08-21T01:58:09;100509.59;;;13.54;79.76
45467;BME280;31212;49.734;8.490;2022-08-21T02:00:35;100506.94;;;13.58;79.99
45467;BME280;31212;49.734;8.490;2022-08-21T02:03:02;100487.03;;;13.50;79.46
45467;BME280;31212;49.734;8.490;2022-08-21T02:05:29;100493.09;;;13.49;79.64
45467;BME280;31212;49.734;8.490;2022-08-21T02:07:56;100498.31;;;13.49;79.43
45467;BME280;31212;49.734;8.490;2022-08-21T02:10:24;100487.91;;;13.47;79.68
45467;BME280;31212;49.734;8.490;2022-08-21T02:12:53;100488.81;;;13.38;79.63
45467;BME280;31212;49.734;8.490;2022-08-21T02:15:20;100497.53;;;13.36;80.19
45467;BME280;31212;49.734;8.490;2022-08-21T02:17:49;100497.53;;;13.31;80.37
45467;BME280;31212;49.734;8.490;2022-08-21T02:20:21;100485.41;;;13.27;79.91
45467;BME280;31212;49.734;8.490;2022-08-21T02:22:48;100488.94;;;13.21;80.20
45467;BME280;31212;49.734;8.490;2022-08-21T05:12:56;100582.81;;;13.07;87.96
45467;BME280;31212;49.734;8.490;2022-08-21T05:15:23;100587.06;;;13.36;86.85
45467;BME280;31212;49.734;8.490;2022-08-21T05:17:50;100571.25;;;13.62;84.99
45467;BME280;31212;49.734;8.490;2022-08-21T05:20:16;100554.59;;;13.79;83.79
45467;BME280;31212;49.734;8.490;2022-08-21T05:22:43;100538.84;;;13.93;82.42
45467;BME280;31212;49.734;8.490;2022-08-21T05:25:10;100519.59;;;14.03;81.81
45467;BME280;31212;49.734;8.490;2022-08-21T05:27:37;100509.91;;;14.13;80.92
45467;BME280;31212;49.734;8.490;2022-08-21T05:30:06;100493.25;;;14.29;80.05
45467;BME280;31212;49.734;8.490;2022-08-21T05:32:33;100469.75;;;14.29;79.17
45467;BME280;31212;49.734;8.490;2022-08-21T05:35:00;100470.59;;;14.30;78.75
45467;BME280;31212;49.734;8.490;2022-08-21T05:37:26;100472.25;;;14.37;78.84
45467;BME280;31212;49.734;8.490;2022-08-21T05:39:53;100465.06;;;14.56;78.08
45467;BME280;31212;49.734;8.490;2022-08-21T05:42:19;100436.19;;;14.70;76.64
45467;BME280;31212;49.734;8.490;2022-08-21T05:44:46;100396.91;;;14.75;75.44
45467;BME280;31212;49.734;8.490;2022-08-21T05:47:14;100390.59;;;14.90;74.72
45467;BME280;31212;49.734;8.490;2022-08-21T05:49:41;100386.06;;;15.01;74.34
45467;BME280;31212;49.734;8.490;2022-08-21T05:52:07;100397.94;;;15.21;74.81
45467;BME280;31212;49.734;8.490;2022-08-21T05:54:35;100393.09;;;15.51;73.96
45467;BME280;31212;49.734;8.490;2022-08-21T05:57:02;100378.78;;;15.70;73.33
45467;BME280;31212;49.734;8.490;2022-08-21T05:59:29;100365.97;;;16.03;72.42
45467;BME280;31212;49.734;8.490;2022-08-21T06:01:56;100355.16;;;16.20;72.17
45467;BME280;31212;49.734;8.490;2022-08-21T06:04:23;100335.53;;;16.40;71.34
45467;BME280;31212;49.734;8.490;2022-08-21T06:06:50;100342.16;;;16.56;71.10
45467;BME280;31212;49.734;8.490;2022-08-21T06:09:16;100333.78;;;16.78;70.65
45467;BME280;31212;49.734;8.490;2022-08-21T06:11:43;100316.72;;;16.97;69.71
45467;BME280;31212;49.734;8.490;2022-08-21T06:14:10;100305.34;;;17.31;69.11
45467;BME280;31212;49.734;8.490;2022-08-21T06:16:39;100273.47;;;17.78;67.42
45467;BME280;31212;49.734;8.490;2022-08-21T06:19:06;100200.97;;;18.31;65.33
45467;BME280;31212;49.734;8.490;2022-08-21T06:21:33;100156.41;;;18.55;63.81
45467;BME280;31212;49.734;8.490;2022-08-21T06:24:00;100150.22;;;18.81;62.87
45467;BME280;31212;49.734;8.490;2022-08-21T06:26:26;100146.13;;;19.23;61.92
45467;BME280;31212;49.734;8.490;2022-08-21T06:28:54;100133.13;;;19.65;61.07
45467;BME280;31212;49.734;8.490;2022-08-21T06:31:23;100131.88;;;19.98;60.54
45467;BME280;31212;49.734;8.490;2022-08-21T06:33:51;100118.84;;;20.58;59.31
45467;BME280;31212;49.734;8.490;2022-08-21T06:36:18;100055.13;;;21.07;57.29
45467;BME280;31212;49.734;8.490;2022-08-21T06:38:47;100030.41;;;21.65;55.83
45467;BME280;31212;49.734;8.490;2022-08-21T06:41:13;99988.97;;;22.36;53.68
45467;BME280;31212;49.734;8.490;2022-08-21T06:43:40;99971.41;;;23.32;51.92
45467;BME280;31212;49.734;8.490;2022-08-21T06:46:07;99931.97;;;24.03;49.78
45467;BME280;31212;49.734;8.490;2022-08-21T06:48:33;99931.88;;;24.48;49.02
45467;BME280;31212;49.734;8.490;2022-08-21T06:51:00;99892.00;;;24.91;47.57
45467;BME280;31212;49.734;8.490;2022-08-21T06:53:27;99875.06;;;25.07;46.71
45467;BME280;31212;49.734;8.490;2022-08-21T06:55:55;99861.91;;;25.71;45.77
45467;BME280;31212;49.734;8.490;2022-08-21T06:58:21;99824.09;;;26.30;44.15
45467;BME280;31212;49.734;8.490;2022-08-21T07:00:49;99810.13;;;26.77;42.84
45467;BME280;31212;49.734;8.490;2022-08-21T07:03:22;99828.59;;;27.27;42.06
45467;BME280;31212;49.734;8.490;2022-08-21T07:05:49;99762.47;;;28.00;40.16
45467;BME280;31212;49.734;8.490;2022-08-21T07:08:16;99726.97;;;27.99;39.34
45467;BME280;31212;49.734;8.490;2022-08-21T07:10:43;99757.75;;;27.69;39.57
45467;BME280;31212;49.734;8.490;2022-08-21T07:13:11;99733.56;;;28.72;38.14
45467;BME280;31212;49.734;8.490;2022-08-21T07:15:38;99684.19;;;28.87;37.29
45467;BME280;31212;49.734;8.490;2022-08-21T07:18:05;99673.88;;;29.03;36.76
45467;BME280;31212;49.734;8.490;2022-08-21T07:20:32;99676.50;;;29.56;35.82
45467;BME280;31212;49.734;8.490;2022-08-21T07:23:01;99729.84;;;29.57;36.89
45467;BME280;31212;49.734;8.490;2022-08-21T07:25:28;99651.72;;;30.53;34.29
45467;BME280;31212;49.734;8.490;2022-08-21T07:27:55;99671.00;;;30.86;34.53
45467;BME280;31212;49.734;8.490;2022-08-21T07:30:23;99614.16;;;31.30;33.36
45467;BME280;31212;49.734;8.490;2022-08-21T07:32:50;99586.19;;;31.78;32.46
45467;BME280;31212;49.734;8.490;2022-08-21T07:35:17;99570.09;;;31.32;32.25
45467;BME280;31212;49.734;8.490;2022-08-21T07:37:44;99585.81;;;31.73;31.86
45467;BME280;31212;49.734;8.490;2022-08-21T07:40:11;99591.22;;;31.45;32.70
45467;BME280;31212;49.734;8.490;2022-08-21T07:42:40;99725.72;;;30.44;35.49
45467;BME280;31212;49.734;8.490;2022-08-21T07:45:08;99649.66;;;31.42;33.08
45467;BME280;31212;49.734;8.490;2022-08-21T07:47:36;99607.69;;;32.32;31.78
45467;BME280;31212;49.734;8.490;2022-08-21T07:50:04;99589.25;;;33.16;30.93
45467;BME280;31212;49.734;8.490;2022-08-21T07:52:31;99589.25;;;33.16;31.09
45467;BME280;31212;49.734;8.490;2022-08-21T07:54:57;99540.75;;;31.95;31.56
45467;BME280;31212;49.734;8.490;2022-08-21T07:57:24;99667.97;;;31.18;33.79
45467;BME280;31212;49.734;8.490;2022-08-21T07:59:51;99679.66;;;31.65;33.27
45467;BME280;31212;49.734;8.490;2022-08-21T08:02:24;99633.84;;;31.94;32.57
45467;BME280;31212;49.734;8.490;2022-08-21T08:04:52;99656.75;;;33.31;31.58
45467;BME280;31212;49.734;8.490;2022-08-21T08:07:19;99597.50;;;32.62;31.51
45467;BME280;31212;49.734;8.490;2022-08-21T08:09:45;99626.13;;;32.98;31.54
45467;BME280;31212;49.734;8.490;2022-08-21T08:12:12;99655.09;;;33.39;31.31
45467;BME280;31212;49.734;8.490;2022-08-21T08:14:39;99638.03;;;32.25;32.52
45467;BME280;31212;49.734;8.490;2022-08-21T08:17:05;99583.16;;;33.49;30.48
45467;BME280;31212;49.734;8.490;2022-08-21T08:19:32;99595.56;;;34.34;29.71
45467;BME280;31212;49.734;8.490;2022-08-21T08:22:00;99574.59;;;34.85;29.15
45467;BME280;31212;49.734;8.490;2022-08-21T08:24:26;99560.69;;;34.08;29.50
45467;BME280;31212;49.734;8.490;2022-08-21T08:26:53;99571.63;;;34.23;29.84
45467;BME280;31212;49.734;8.490;2022-08-21T08:29:21;99582.06;;;34.17;29.92
45467;BME280;31212;49.734;8.490;2022-08-21T08:31:48;99605.25;;;35.41;28.90
45467;BME280;31212;49.734;8.490;2022-08-21T08:34:14;99558.03;;;36.29;27.86
45467;BME280;31212;49.734;8.490;2022-08-21T08:36:41;99508.41;;;35.92;27.86
45467;BME280;31212;49.734;8.490;2022-08-21T08:39:08;99553.78;;;35.42;28.67
45467;BME280;31212;49.734;8.490;2022-08-21T08:41:36;99546.41;;;35.91;27.67
45467;BME280;31212;49.734;8.490;2022-08-21T08:44:04;99559.00;;;35.44;28.79
45467;BME280;31212;49.734;8.490;2022-08-21T08:46:36;99585.94;;;35.83;28.94
45467;BME280;31212;49.734;8.490;2022-08-21T08:49:08;99601.34;;;35.75;28.85
45467;BME280;31212;49.734;8.490;2022-08-21T08:51:42;99583.09;;;36.23;28.04
45467;BME280;31212;49.734;8.490;2022-08-21T08:54:13;99595.38;;;35.56;28.77
45467;BME280;31212;49.734;8.490;2022-08-21T08:56:41;99597.28;;;34.99;29.48
45467;BME280;31212;49.734;8.490;2022-08-21T08:59:14;99590.72;;;35.42;29.03
45467;BME280;31212;49.734;8.490;2022-08-21T09:01:41;99577.22;;;35.73;28.82
45467;BME280;31212;49.734;8.490;2022-08-21T09:04:09;99580.09;;;35.72;28.81
45467;BME280;31212;49.734;8.490;2022-08-21T09:06:51;99585.13;;;36.21;28.39
45467;BME280;31212;49.734;8.490;2022-08-21T09:09:29;99550.34;;;36.03;27.82
45467;BME280;31212;49.734;8.490;2022-08-21T09:12:02;99600.31;;;35.04;29.63
45467;BME280;31212;49.734;8.490;2022-08-21T09:14:52;99589.22;;;36.17;28.07
45467;BME280;31212;49.734;8.490;2022-08-21T09:17:35;99530.53;;;37.15;26.77
45467;BME280;31212;49.734;8.490;2022-08-21T09:20:14;99552.66;;;37.19;26.84
45467;BME280;31212;49.734;8.490;2022-08-21T09:22:50;99533.59;;;36.61;27.38
45467;BME280;31212;49.734;8.490;2022-08-21T09:25:23;99551.03;;;35.74;28.28
45467;BME280;31212;49.734;8.490;2022-08-21T09:27:50;99507.28;;;35.86;27.53
45467;BME280;31212;49.734;8.490;2022-08-21T09:30:19;99487.78;;;36.44;26.35
45467;BME280;31212;49.734;8.490;2022-08-21T09:32:49;99517.06;;;36.41;27.43
45467;BME280;31212;49.734;8.490;2022-08-21T09:35:18;99528.38;;;36.59;27.52
45467;BME280;31212;49.734;8.490;2022-08-21T09:37:50;99551.91;;;35.74;28.31
45467;BME280;31212;49.734;8.490;2022-08-21T09:40:32;99585.13;;;35.51;28.82
45467;BME280;31212;49.734;8.490;2022-08-21T09:43:01;99440.63;;;37.57;24.74
45467;BME280;31212;49.734;8.490;2022-08-21T09:45:28;99444.38;;;37.56;24.58
45467;BME280;31212;49.734;8.490;2022-08-21T09:47:55;99448.59;;;37.86;24.70
45467;BME280;31212;49.734;8.490;2022-08-21T09:50:24;99431.38;;;37.73;24.58
45467;BME280;31212;49.734;8.490;2022-08-21T09:52:55;99363.00;;;36.41;25.15
45467;BME280;31212;49.734;8.490;2022-08-21T09:55:31;99362.88;;;35.74;25.45
45467;BME280;31212;49.734;8.490;2022-08-21T09:58:18;99425.16;;;36.41;24.89
45467;BME280;31212;49.734;8.490;2022-08-21T10:00:45;99419.75;;;36.41;25.06
45467;BME280;31212;49.734;8.490;2022-08-21T10:03:22;99445.88;;;37.00;24.77
45467;BME280;31212;49.734;8.490;2022-08-21T10:05:54;99411.72;;;36.99;24.53
45467;BME280;31212;49.734;8.490;2022-08-21T10:08:23;99413.50;;;37.28;24.32
45467;BME280;31212;49.734;8.490;2022-08-21T10:10:55;99379.38;;;36.54;24.69
45467;BME280;31212;49.734;8.490;2022-08-21T10:13:32;99431.16;;;37.96;23.99
45467;BME280;31212;49.734;8.490;2022-08-21T10:16:11;99421.03;;;38.46;23.46
45467;BME280;31212;49.734;8.490;2022-08-21T10:18:41;99393.69;;;38.06;23.62
45467;BME280;31212;49.734;8.490;2022-08-21T10:21:15;99417.06;;;36.92;24.94
45467;BME280;31212;49.734;8.490;2022-08-21T10:23:56;99437.19;;;38.26;23.98
45467;BME280;31212;49.734;8.490;2022-08-21T10:26:35;99404.16;;;38.09;23.77
45467;BME280;31212;49.734;8.490;2022-08-21T10:29:14;99342.75;;;37.31;23.57
45467;BME280;31212;49.734;8.490;2022-08-21T10:31:51;99326.41;;;37.25;23.04
45467;BME280;31212;49.734;8.490;2022-08-21T10:34:36;99328.09;;;36.61;24.07
45467;BME280;31212;49.734;8.490;2022-08-21T10:37:17;99437.84;;;37.28;24.32
45467;BME280;31212;49.734;8.490;2022-08-21T10:39:51;99354.22;;;38.32;22.60
45467;BME280;31212;49.734;8.490;2022-08-21T10:42:32;99347.16;;;37.96;22.71
45467;BME280;31212;49.734;8.490;2022-08-21T10:45:09;99356.16;;;38.38;22.74
45467;BME280;31212;49.734;8.490;2022-08-21T10:47:42;99346.41;;;38.57;22.48
45467;BME280;31212;49.734;8.490;2022-08-21T10:50:19;99339.09;;;38.51;22.47
45467;BME280;31212;49.734;8.490;2022-08-21T10:53:01;99309.03;;;37.34;22.98
45467;BME280;31212;49.734;8.490;2022-08-21T10:55:33;99324.75;;;34.38;25.69
45467;BME280;31212;49.734;8.490;2022-08-21T10:58:08;99423.19;;;36.34;24.77
45467;BME280;31212;49.734;8.490;2022-08-21T11:00:40;99342.13;;;37.64;23.01
45467;BME280;31212;49.734;8.490;2022-08-21T11:03:13;99426.88;;;37.80;23.73
45467;BME280;31212;49.734;8.490;2022-08-21T11:05:42;99364.31;;;37.46;23.28
45467;BME280;31212;49.734;8.490;2022-08-21T11:08:15;99386.47;;;38.55;22.78
45467;BME280;31212;49.734;8.490;2022-08-21T11:10:47;99355.03;;;37.84;23.39
45467;BME280;31212;49.734;8.490;2022-08-21T11:13:19;99401.09;;;38.67;22.77
45467;BME280;31212;49.734;8.490;2022-08-21T11:15:54;99355.19;;;38.17;22.89
45467;BME280;31212;49.734;8.490;2022-08-21T11:18:24;99353.06;;;38.54;22.57
45467;BME280;31212;49.734;8.490;2022-08-21T11:21:01;99308.00;;;38.47;22.10
45467;BME280;31212;49.734;8.490;2022-08-21T11:23:37;99273.03;;;37.40;22.79
45467;BME280;31212;49.734;8.490;2022-08-21T11:26:08;99329.25;;;37.66;23.05
45467;BME280;31212;49.734;8.490;2022-08-21T11:28:41;99303.81;;;37.32;23.31
45467;BME280;31212;49.734;8.490;2022-08-21T11:31:19;99304.25;;;35.83;24.23
45467;BME280;31212;49.734;8.490;2022-08-21T11:33:59;99273.50;;;35.69;24.43
45467;BME280;31212;49.734;8.490;2022-08-21T11:36:35;99306.66;;;35.25;24.91
45467;BME280;31212;49.734;8.490;2022-08-21T11:39:13;99376.78;;;35.48;25.03
45467;BME280;31212;49.734;8.490;2022-08-21T11:41:47;99336.50;;;35.23;24.81
45467;BME280;31212;49.734;8.490;2022-08-21T11:44:23;99355.28;;;34.93;25.52
45467;BME280;31212;49.734;8.490;2022-08-21T11:46:59;99321.38;;;34.99;25.28
45467;BME280;31212;49.734;8.490;2022-08-21T11:49:49;99358.38;;;34.82;25.73
45467;BME280;31212;49.734;8.490;2022-08-21T11:52:23;99327.97;;;34.33;25.89
45467;BME280;31212;49.734;8.490;2022-08-21T11:54:55;99406.03;;;34.58;26.47
45467;BME280;31212;49.734;8.490;2022-08-21T11:57:27;99369.06;;;34.27;26.51
45467;BME280;31212;49.734;8.490;2022-08-21T12:00:00;99377.16;;;33.30;27.74
45467;BME280;31212;49.734;8.490;2022-08-21T12:02:39;99445.81;;;33.08;28.40
45467;BME280;31212;49.734;8.490;2022-08-21T12:05:11;99456.75;;;33.14;28.44
45467;BME280;31212;49.734;8.490;2022-08-21T12:07:48;99406.53;;;32.64;28.30
45467;BME280;31212;49.734;8.490;2022-08-21T12:10:32;99420.84;;;33.32;27.62
45467;BME280;31212;49.734;8.490;2022-08-21T12:13:06;99429.94;;;33.47;27.56
45467;BME280;31212;49.734;8.490;2022-08-21T12:15:35;99397.31;;;33.34;27.23
45467;BME280;31212;49.734;8.490;2022-08-21T12:18:04;99427.06;;;33.32;28.05
45467;BME280;31212;49.734;8.490;2022-08-21T12:20:41;99478.69;;;33.52;28.34
45467;BME280;31212;49.734;8.490;2022-08-21T12:23:24;99410.75;;;33.50;27.34
45467;BME280;31212;49.734;8.490;2022-08-21T12:26:11;99400.66;;;33.61;27.17
45467;BME280;31212;49.734;8.490;2022-08-21T12:28:40;99418.66;;;33.52;27.53
45467;BME280;31212;49.734;8.490;2022-08-21T12:31:22;99379.47;;;33.08;27.33
45467;BME280;31212;49.734;8.490;2022-08-21T12:33:54;99379.22;;;32.34;28.15
45467;BME280;31212;49.734;8.490;2022-08-21T12:36:24;99372.50;;;32.73;27.62
45467;BME280;31212;49.734;8.490;2022-08-21T12:38:55;99398.84;;;33.45;27.16
45467;BME280;31212;49.734;8.490;2022-08-21T12:41:26;99405.72;;;33.47;27.23
45467;BME280;31212;49.734;8.490;2022-08-21T12:43:57;99400.97;;;33.74;26.81
45467;BME280;31212;49.734;8.490;2022-08-21T12:46:31;99392.94;;;33.41;27.31
45467;BME280;31212;49.734;8.490;2022-08-21T12:49:03;99352.22;;;33.44;26.56
45467;BME280;31212;49.734;8.490;2022-08-21T12:51:50;99349.19;;;33.06;26.96
45467;BME280;31212;49.734;8.490;2022-08-21T12:54:26;99356.94;;;33.26;26.73
45467;BME280;31212;49.734;8.490;2022-08-21T12:56:59;99276.03;;;32.02;26.97
45467;BME280;31212;49.734;8.490;2022-08-21T12:59:26;99292.16;;;32.53;26.67
45467;BME280;31212;49.734;8.490;2022-08-21T13:01:55;99416.97;;;33.26;27.45
45467;BME280;31212;49.734;8.490;2022-08-21T13:04:27;99383.84;;;33.26;27.25
45467;BME280;31212;49.734;8.490;2022-08-21T13:06:58;99348.56;;;33.37;26.43
45467;BME280;31212;49.734;8.490;2022-08-21T13:09:27;99354.72;;;32.88;27.11
45467;BME280;31212;49.734;8.490;2022-08-21T13:11:56;99343.28;;;32.94;26.76
45467;BME280;31212;49.734;8.490;2022-08-21T13:14:27;99345.88;;;33.37;26.51
45467;BME280;31212;49.734;8.490;2022-08-21T13:16:58;99350.50;;;33.76;26.27
45467;BME280;31212;49.734;8.490;2022-08-21T13:19:25;99317.22;;;33.77;25.75
45467;BME280;31212;49.734;8.490;2022-08-21T13:21:53;99303.91;;;33.67;25.56
45467;BME280;31212;49.734;8.490;2022-08-21T13:24:23;99299.41;;;34.16;25.25
45467;BME280;31212;49.734;8.490;2022-08-21T13:26:51;99343.13;;;34.34;25.73
45467;BME280;31212;49.734;8.490;2022-08-21T13:29:21;99310.56;;;34.76;24.54
45467;BME280;31212;49.734;8.490;2022-08-21T13:31:51;99278.59;;;34.41;24.58
45467;BME280;31212;49.734;8.490;2022-08-21T13:34:20;99226.59;;;34.01;24.74
45467;BME280;31212;49.734;8.490;2022-08-21T13:36:47;99360.25;;;35.04;25.43
45467;BME280;31212;49.734;8.490;2022-08-21T13:39:18;99298.16;;;35.28;24.35
45467;BME280;31212;49.734;8.490;2022-08-21T13:41:48;99236.94;;;34.20;24.79
45467;BME280;31212;49.734;8.490;2022-08-21T13:44:17;99248.34;;;33.91;24.79
45467;BME280;31212;49.734;8.490;2022-08-21T13:46:45;99210.53;;;33.03;25.49
45467;BME280;31212;49.734;8.490;2022-08-21T13:49:15;99306.31;;;33.54;26.13
45467;BME280;31212;49.734;8.490;2022-08-21T13:51:44;99232.47;;;34.36;23.97
45467;BME280;31212;49.734;8.490;2022-08-21T13:54:18;99241.41;;;34.36;24.41
45467;BME280;31212;49.734;8.490;2022-08-21T13:56:47;99189.69;;;33.14;25.05
45467;BME280;31212;49.734;8.490;2022-08-21T13:59:24;99260.69;;;34.48;24.33
45467;BME280;31212;49.734;8.490;2022-08-21T14:01:52;99253.44;;;34.95;23.90
45467;BME280;31212;49.734;8.490;2022-08-21T14:04:26;99156.94;;;34.21;23.96
45467;BME280;31212;49.734;8.490;2022-08-21T14:06:57;99244.22;;;35.28;23.57
45467;BME280;31212;49.734;8.490;2022-08-21T14:09:28;99242.41;;;35.88;23.04
45467;BME280;31212;49.734;8.490;2022-08-21T14:11:56;99152.84;;;35.10;23.16
45467;BME280;31212;49.734;8.490;2022-08-21T14:14:26;99158.50;;;34.62;23.69
45467;BME280;31212;49.734;8.490;2022-08-21T14:16:56;99201.34;;;35.63;23.00
45467;BME280;31212;49.734;8.490;2022-08-21T14:19:25;99129.06;;;35.43;22.43
45467;BME280;31212;49.734;8.490;2022-08-21T14:21:53;99172.16;;;34.98;23.22
45467;BME280;31212;49.734;8.490;2022-08-21T14:24:30;99149.63;;;33.75;24.29
45467;BME280;31212;49.734;8.490;2022-08-21T14:27:02;99166.72;;;34.45;23.94
45467;BME280;31212;49.734;8.490;2022-08-21T14:29:33;99179.38;;;35.51;22.67
45467;BME280;31212;49.734;8.490;2022-08-21T14:32:10;99096.19;;;35.25;22.56
45467;BME280;31212;49.734;8.490;2022-08-21T14:34:38;99163.00;;;35.37;22.63
45467;BME280;31212;49.734;8.490;2022-08-21T14:37:04;99194.59;;;34.06;24.66
45467;BME280;31212;49.734;8.490;2022-08-21T14:39:32;99202.56;;;35.45;23.42
45467;BME280;31212;49.734;8.490;2022-08-21T14:41:59;99107.03;;;34.33;23.42
45467;BME280;31212;49.734;8.490;2022-08-21T14:44:26;99108.22;;;33.53;24.15
45467;BME280;31212;49.734;8.490;2022-08-21T14:46:53;99087.38;;;33.07;24.34
45467;BME280;31212;49.734;8.490;2022-08-21T14:49:21;99123.50;;;33.92;23.89
45467;BME280;31212;49.734;8.490;2022-08-21T14:51:47;99164.06;;;34.83;23.37
45467;BME280;31212;49.734;8.490;2022-08-21T14:54:18;99119.56;;;34.64;22.98
45467;BME280;31212;49.734;8.490;2022-08-21T14:56:46;99129.59;;;35.39;22.73
45467;BME280;31212;49.734;8.490;2022-08-21T14:59:13;99151.00;;;35.40;22.60
45467;BME280;31212;49.734;8.490;2022-08-21T15:01:44;99107.06;;;34.72;22.78
45467;BME280;31212;49.734;8.490;2022-08-21T15:04:10;99103.72;;;35.14;22.25
45467;BME280;31212;49.734;8.490;2022-08-21T15:06:37;99072.94;;;35.09;22.37
45467;BME280;31212;49.734;8.490;2022-08-21T15:09:03;99084.13;;;35.06;22.51
45467;BME280;31212;49.734;8.490;2022-08-21T15:11:32;99119.28;;;35.27;22.22
45467;BME280;31212;49.734;8.490;2022-08-21T15:14:02;99075.00;;;34.39;23.22
45467;BME280;31212;49.734;8.490;2022-08-21T15:16:29;99103.03;;;33.75;23.85
45467;BME280;31212;49.734;8.490;2022-08-21T15:18:56;99092.44;;;33.81;23.68
45467;BME280;31212;49.734;8.490;2022-08-21T15:21:23;99131.09;;;33.89;24.03
45467;BME280;31212;49.734;8.490;2022-08-21T15:23:49;99066.72;;;31.67;25.41
45467;BME280;31212;49.734;8.490;2022-08-21T15:26:16;99164.00;;;32.62;25.25
45467;BME280;31212;49.734;8.490;2022-08-21T15:28:43;99093.94;;;31.81;25.35
45467;BME280;31212;49.734;8.490;2022-08-21T15:31:11;99115.66;;;32.53;24.98
45467;BME280;31212;49.734;8.490;2022-08-21T15:33:37;99082.53;;;31.28;25.88
45467;BME280;31212;49.734;8.490;2022-08-21T15:36:04;99126.22;;;32.06;25.47
45467;BME280;31212;49.734;8.490;2022-08-21T15:38:31;99167.03;;;32.67;25.52
45467;BME280;31212;49.734;8.490;2022-08-21T15:40:57;99146.91;;;32.54;25.39
45467;BME280;31212;49.734;8.490;2022-08-21T15:43:26;99135.13;;;32.47;25.45
45467;BME280;31212;49.734;8.490;2022-08-21T15:45:54;99163.00;;;32.63;25.50
45467;BME280;31212;49.734;8.490;2022-08-21T15:48:22;99181.81;;;32.63;25.71
45467;BME280;31212;49.734;8.490;2022-08-21T15:50:48;99153.75;;;32.16;25.99
45467;BME280;31212;49.734;8.490;2022-08-21T15:53:15;99144.13;;;31.54;26.80
45467;BME280;31212;49.734;8.490;2022-08-21T15:55:42;99175.00;;;31.24;27.45
45467;BME280;31212;49.734;8.490;2022-08-21T15:58:13;99147.88;;;31.00;27.12
45467;BME280;31212;49.734;8.490;2022-08-21T16:00:41;99152.31;;;30.65;27.49